Saint Mary, Montana
Current Conditions -  °F | °C
As of 5:56 AM on Tuesday 21 Oct 2014 (Local Time) from KCTB Reporting Station
Overcast Overcast  
Wind Chill: 58°   Ceiling: 10000
Heat Index: 58°   Visibility: 10mi
Dew Point: 36°   Wind: 12mph
Humidity: 44%   Direction: 280°W
Pressure: 29.66"   Gusts: NA
Location:  48.5484°N, 112.952°W
Report Text: KCTB 211156Z AUTO 28010KT 10SM FEW065 FEW080 OVC100 14/02 A2966 RMK AO2 SLP020 T01440022 10156 20050 57007
Loading
Personal Weather Stations






























Interactive Weather Map New forecast layout! Learn more

10-Day Weather Forecast

Advertisements
Track Severe Weather on mobile